sensor_id;sensor_type;location;lat;lon;timestamp;temperature;humidity
21582;DHT22;10952;50.836;4.348;2023-11-19T00:00:09;14.50;99.90
21582;DHT22;10952;50.836;4.348;2023-11-19T00:02:40;14.50;99.90
21582;DHT22;10952;50.836;4.348;2023-11-19T00:05:06;14.50;99.90
21582;DHT22;10952;50.836;4.348;2023-11-19T00:07:37;14.50;99.90
21582;DHT22;10952;50.836;4.348;2023-11-19T00:10:03;14.50;99.90
21582;DHT22;10952;50.836;4.348;2023-11-19T00:12:43;14.60;99.90
21582;DHT22;10952;50.836;4.348;2023-11-19T00:15:10;14.50;99.90
21582;DHT22;10952;50.836;4.348;2023-11-19T00:17:42;14.60;99.90
21582;DHT22;10952;50.836;4.348;2023-11-19T00:20:13;14.60;99.90
21582;DHT22;10952;50.836;4.348;2023-11-19T00:22:40;14.60;99.90
21582;DHT22;10952;50.836;4.348;2023-11-19T00:25:07;14.60;99.90
21582;DHT22;10952;50.836;4.348;2023-11-19T00:27:35;14.60;99.90
21582;DHT22;10952;50.836;4.348;2023-11-19T00:30:01;14.60;99.90
21582;DHT22;10952;50.836;4.348;2023-11-19T00:32:26;14.60;99.90
21582;DHT22;10952;50.836;4.348;2023-11-19T00:34:52;14.60;99.90
21582;DHT22;10952;50.836;4.348;2023-11-19T00:37:17;14.60;99.90
21582;DHT22;10952;50.836;4.348;2023-11-19T00:39:43;14.70;99.90
21582;DHT22;10952;50.836;4.348;2023-11-19T00:42:09;14.60;99.90
21582;DHT22;10952;50.836;4.348;2023-11-19T00:44:38;14.70;99.90
21582;DHT22;10952;50.836;4.348;2023-11-19T00:47:03;14.60;99.90
21582;DHT22;10952;50.836;4.348;2023-11-19T00:49:30;14.60;99.90
21582;DHT22;10952;50.836;4.348;2023-11-19T00:51:58;14.60;99.90
21582;DHT22;10952;50.836;4.348;2023-11-19T00:54:24;14.60;99.90
21582;DHT22;10952;50.836;4.348;2023-11-19T00:56:51;14.60;99.90
21582;DHT22;10952;50.836;4.348;2023-11-19T00:59:18;14.60;99.90
21582;DHT22;10952;50.836;4.348;2023-11-19T01:01:43;14.70;99.90
21582;DHT22;10952;50.836;4.348;2023-11-19T01:04:09;14.60;99.90
21582;DHT22;10952;50.836;4.348;2023-11-19T01:06:35;14.70;99.90
21582;DHT22;10952;50.836;4.348;2023-11-19T01:09:00;14.70;99.90
21582;DHT22;10952;50.836;4.348;2023-11-19T01:11:26;14.80;99.90
21582;DHT22;10952;50.836;4.348;2023-11-19T01:13:52;14.70;99.90
21582;DHT22;10952;50.836;4.348;2023-11-19T01:16:18;14.80;99.90
21582;DHT22;10952;50.836;4.348;2023-11-19T01:18:44;14.70;99.90
21582;DHT22;10952;50.836;4.348;2023-11-19T01:21:10;14.70;99.90
21582;DHT22;10952;50.836;4.348;2023-11-19T01:23:37;14.70;99.90
21582;DHT22;10952;50.836;4.348;2023-11-19T01:26:03;14.80;99.90
21582;DHT22;10952;50.836;4.348;2023-11-19T01:28:30;14.90;99.90
21582;DHT22;10952;50.836;4.348;2023-11-19T01:30:56;14.90;99.90
21582;DHT22;10952;50.836;4.348;2023-11-19T01:33:22;14.90;99.90
21582;DHT22;10952;50.836;4.348;2023-11-19T01:35:47;14.90;99.90
21582;DHT22;10952;50.836;4.348;2023-11-19T01:38:13;14.90;99.90
21582;DHT22;10952;50.836;4.348;2023-11-19T01:40:38;14.90;99.90
21582;DHT22;10952;50.836;4.348;2023-11-19T01:43:04;14.90;99.90
21582;DHT22;10952;50.836;4.348;2023-11-19T01:45:31;14.90;99.90
21582;DHT22;10952;50.836;4.348;2023-11-19T01:47:57;14.80;99.90
21582;DHT22;10952;50.836;4.348;2023-11-19T01:50:24;14.70;99.90
21582;DHT22;10952;50.836;4.348;2023-11-19T01:52:52;14.70;99.90
21582;DHT22;10952;50.836;4.348;2023-11-19T01:55:22;14.70;99.90
21582;DHT22;10952;50.836;4.348;2023-11-19T01:57:48;14.70;99.90
21582;DHT22;10952;50.836;4.348;2023-11-19T02:00:15;14.70;99.90
21582;DHT22;10952;50.836;4.348;2023-11-19T02:02:42;14.70;99.90
21582;DHT22;10952;50.836;4.348;2023-11-19T02:05:09;14.70;99.90
21582;DHT22;10952;50.836;4.348;2023-11-19T02:07:35;14.70;99.90
21582;DHT22;10952;50.836;4.348;2023-11-19T02:10:01;14.70;99.90
21582;DHT22;10952;50.836;4.348;2023-11-19T02:12:28;14.60;99.90
21582;DHT22;10952;50.836;4.348;2023-11-19T02:14:54;14.50;99.90
21582;DHT22;10952;50.836;4.348;2023-11-19T02:17:30;14.50;99.90
21582;DHT22;10952;50.836;4.348;2023-11-19T02:19:59;14.50;99.90
21582;DHT22;10952;50.836;4.348;2023-11-19T02:22:25;14.60;99.90
21582;DHT22;10952;50.836;4.348;2023-11-19T02:24:56;14.50;99.90
21582;DHT22;10952;50.836;4.348;2023-11-19T02:27:54;14.50;99.90
21582;DHT22;10952;50.836;4.348;2023-11-19T02:30:22;14.50;99.90
21582;DHT22;10952;50.836;4.348;2023-11-19T02:32:55;14.50;99.90
21582;DHT22;10952;50.836;4.348;2023-11-19T02:35:23;14.60;99.90
21582;DHT22;10952;50.836;4.348;2023-11-19T02:37:49;14.50;99.90
21582;DHT22;10952;50.836;4.348;2023-11-19T02:40:14;14.50;99.90
21582;DHT22;10952;50.836;4.348;2023-11-19T02:42:40;14.50;99.90
21582;DHT22;10952;50.836;4.348;2023-11-19T02:45:06;14.50;99.90
21582;DHT22;10952;50.836;4.348;2023-11-19T02:47:33;14.50;99.90
21582;DHT22;10952;50.836;4.348;2023-11-19T02:49:59;14.50;99.90
21582;DHT22;10952;50.836;4.348;2023-11-19T02:52:25;14.50;99.90
21582;DHT22;10952;50.836;4.348;2023-11-19T02:54:51;14.40;99.90
21582;DHT22;10952;50.836;4.348;2023-11-19T02:57:18;14.40;99.90
21582;DHT22;10952;50.836;4.348;2023-11-19T02:59:46;14.40;99.90
21582;DHT22;10952;50.836;4.348;2023-11-19T03:02:12;14.40;99.90
21582;DHT22;10952;50.836;4.348;2023-11-19T03:04:41;14.30;99.90
21582;DHT22;10952;50.836;4.348;2023-11-19T03:07:08;14.30;99.90
21582;DHT22;10952;50.836;4.348;2023-11-19T03:09:34;14.30;99.90
21582;DHT22;10952;50.836;4.348;2023-11-19T03:12:06;14.20;99.90
21582;DHT22;10952;50.836;4.348;2023-11-19T03:14:33;14.20;99.90
21582;DHT22;10952;50.836;4.348;2023-11-19T03:17:00;14.20;99.90
21582;DHT22;10952;50.836;4.348;2023-11-19T03:19:25;14.10;99.90
21582;DHT22;10952;50.836;4.348;2023-11-19T03:21:52;14.20;99.90
21582;DHT22;10952;50.836;4.348;2023-11-19T03:24:18;14.10;99.90
21582;DHT22;10952;50.836;4.348;2023-11-19T03:26:50;14.10;99.90
21582;DHT22;10952;50.836;4.348;2023-11-19T03:29:16;14.00;99.90
21582;DHT22;10952;50.836;4.348;2023-11-19T03:31:42;14.00;99.90
21582;DHT22;10952;50.836;4.348;2023-11-19T03:34:08;14.00;99.90
21582;DHT22;10952;50.836;4.348;2023-11-19T03:36:34;14.00;99.90
21582;DHT22;10952;50.836;4.348;2023-11-19T03:39:00;13.90;99.90
21582;DHT22;10952;50.836;4.348;2023-11-19T03:41:25;13.90;99.90
21582;DHT22;10952;50.836;4.348;2023-11-19T03:43:51;13.90;99.90
21582;DHT22;10952;50.836;4.348;2023-11-19T03:46:20;13.90;99.90
21582;DHT22;10952;50.836;4.348;2023-11-19T03:48:49;13.90;99.90
21582;DHT22;10952;50.836;4.348;2023-11-19T03:51:15;13.80;99.90
21582;DHT22;10952;50.836;4.348;2023-11-19T03:53:45;13.80;99.90
21582;DHT22;10952;50.836;4.348;2023-11-19T03:56:11;13.80;99.90
21582;DHT22;10952;50.836;4.348;2023-11-19T03:58:37;13.70;99.90
21582;DHT22;10952;50.836;4.348;2023-11-19T04:01:11;13.70;99.90
21582;DHT22;10952;50.836;4.348;2023-11-19T04:03:36;13.70;99.90
21582;DHT22;10952;50.836;4.348;2023-11-19T04:06:02;13.70;99.90
21582;DHT22;10952;50.836;4.348;2023-11-19T04:08:28;13.70;99.90
21582;DHT22;10952;50.836;4.348;2023-11-19T04:10:54;13.80;99.90
21582;DHT22;10952;50.836;4.348;2023-11-19T04:13:20;13.80;99.90
21582;DHT22;10952;50.836;4.348;2023-11-19T04:15:45;13.80;99.90
21582;DHT22;10952;50.836;4.348;2023-11-19T04:18:11;13.80;99.90
21582;DHT22;10952;50.836;4.348;2023-11-19T04:20:36;13.80;99.90
21582;DHT22;10952;50.836;4.348;2023-11-19T04:23:03;13.80;99.90
21582;DHT22;10952;50.836;4.348;2023-11-19T04:25:28;13.80;99.90
21582;DHT22;10952;50.836;4.348;2023-11-19T04:27:54;13.80;99.90
21582;DHT22;10952;50.836;4.348;2023-11-19T04:30:20;13.80;99.90
21582;DHT22;10952;50.836;4.348;2023-11-19T04:32:45;13.70;99.90
21582;DHT22;10952;50.836;4.348;2023-11-19T04:35:11;13.60;99.90
21582;DHT22;10952;50.836;4.348;2023-11-19T04:37:37;13.60;99.90
21582;DHT22;10952;50.836;4.348;2023-11-19T04:40:03;13.70;99.90
21582;DHT22;10952;50.836;4.348;2023-11-19T04:42:29;13.60;99.90
21582;DHT22;10952;50.836;4.348;2023-11-19T04:44:55;13.60;99.90
21582;DHT22;10952;50.836;4.348;2023-11-19T04:47:21;13.50;99.90
21582;DHT22;10952;50.836;4.348;2023-11-19T04:49:46;13.60;99.90
21582;DHT22;10952;50.836;4.348;2023-11-19T04:52:12;13.60;99.90
21582;DHT22;10952;50.836;4.348;2023-11-19T04:54:41;13.70;99.90
21582;DHT22;10952;50.836;4.348;2023-11-19T04:57:08;13.60;99.90
21582;DHT22;10952;50.836;4.348;2023-11-19T04:59:36;13.60;99.90
21582;DHT22;10952;50.836;4.348;2023-11-19T05:02:02;13.60;99.90
21582;DHT22;10952;50.836;4.348;2023-11-19T05:04:27;13.70;99.90
21582;DHT22;10952;50.836;4.348;2023-11-19T05:06:53;13.70;99.90
21582;DHT22;10952;50.836;4.348;2023-11-19T05:09:18;13.70;99.90
21582;DHT22;10952;50.836;4.348;2023-11-19T05:11:44;13.60;99.90
21582;DHT22;10952;50.836;4.348;2023-11-19T05:14:10;13.60;99.90
21582;DHT22;10952;50.836;4.348;2023-11-19T05:16:35;13.50;99.90
21582;DHT22;10952;50.836;4.348;2023-11-19T05:19:01;13.50;99.90
21582;DHT22;10952;50.836;4.348;2023-11-19T05:21:27;13.50;99.90
21582;DHT22;10952;50.836;4.348;2023-11-19T05:23:52;13.50;99.90
21582;DHT22;10952;50.836;4.348;2023-11-19T05:26:19;13.40;99.90
21582;DHT22;10952;50.836;4.348;2023-11-19T05:28:45;13.50;99.90
21582;DHT22;10952;50.836;4.348;2023-11-19T05:31:11;13.40;99.90
21582;DHT22;10952;50.836;4.348;2023-11-19T05:33:36;13.40;99.90
21582;DHT22;10952;50.836;4.348;2023-11-19T05:36:02;13.50;99.90
21582;DHT22;10952;50.836;4.348;2023-11-19T05:38:29;13.50;99.90
21582;DHT22;10952;50.836;4.348;2023-11-19T05:40:55;13.50;99.90
21582;DHT22;10952;50.836;4.348;2023-11-19T05:43:21;13.60;99.90
21582;DHT22;10952;50.836;4.348;2023-11-19T05:45:46;13.50;99.90
21582;DHT22;10952;50.836;4.348;2023-11-19T05:48:12;13.60;99.90
21582;DHT22;10952;50.836;4.348;2023-11-19T05:50:38;13.40;99.90
21582;DHT22;10952;50.836;4.348;2023-11-19T05:53:04;13.40;99.90
21582;DHT22;10952;50.836;4.348;2023-11-19T05:55:36;13.40;99.90
21582;DHT22;10952;50.836;4.348;2023-11-19T05:58:10;13.30;99.90
21582;DHT22;10952;50.836;4.348;2023-11-19T06:00:38;13.20;99.90
21582;DHT22;10952;50.836;4.348;2023-11-19T06:03:04;13.30;99.90
21582;DHT22;10952;50.836;4.348;2023-11-19T06:05:30;13.30;99.90
21582;DHT22;10952;50.836;4.348;2023-11-19T06:07:55;13.30;99.90
21582;DHT22;10952;50.836;4.348;2023-11-19T06:10:23;13.30;99.90
21582;DHT22;10952;50.836;4.348;2023-11-19T06:12:54;13.30;99.90
21582;DHT22;10952;50.836;4.348;2023-11-19T06:15:22;13.20;99.90
21582;DHT22;10952;50.836;4.348;2023-11-19T06:17:48;13.30;99.90
21582;DHT22;10952;50.836;4.348;2023-11-19T06:20:13;13.30;99.90
21582;DHT22;10952;50.836;4.348;2023-11-19T06:22:39;13.30;99.90
21582;DHT22;10952;50.836;4.348;2023-11-19T06:25:08;13.30;99.90
21582;DHT22;10952;50.836;4.348;2023-11-19T06:27:33;13.20;99.90
21582;DHT22;10952;50.836;4.348;2023-11-19T06:30:00;13.20;99.90
21582;DHT22;10952;50.836;4.348;2023-11-19T06:32:26;13.20;99.90
21582;DHT22;10952;50.836;4.348;2023-11-19T06:34:51;13.20;99.90
21582;DHT22;10952;50.836;4.348;2023-11-19T06:37:17;13.10;99.90
21582;DHT22;10952;50.836;4.348;2023-11-19T06:39:42;13.00;99.90
21582;DHT22;10952;50.836;4.348;2023-11-19T06:42:08;13.00;99.90
21582;DHT22;10952;50.836;4.348;2023-11-19T06:44:34;13.00;99.90
21582;DHT22;10952;50.836;4.348;2023-11-19T06:46:59;13.00;99.90
21582;DHT22;10952;50.836;4.348;2023-11-19T06:49:25;13.00;99.90
21582;DHT22;10952;50.836;4.348;2023-11-19T06:51:51;12.90;99.90
21582;DHT22;10952;50.836;4.348;2023-11-19T06:54:16;12.90;99.90
21582;DHT22;10952;50.836;4.348;2023-11-19T06:56:42;12.90;99.90
21582;DHT22;10952;50.836;4.348;2023-11-19T06:59:08;12.90;99.90
21582;DHT22;10952;50.836;4.348;2023-11-19T07:01:35;12.90;99.90
21582;DHT22;10952;50.836;4.348;2023-11-19T07:04:01;12.90;99.90
21582;DHT22;10952;50.836;4.348;2023-11-19T07:06:33;12.90;99.90
21582;DHT22;10952;50.836;4.348;2023-11-19T07:09:00;12.90;99.90
21582;DHT22;10952;50.836;4.348;2023-11-19T07:11:27;12.80;99.90
21582;DHT22;10952;50.836;4.348;2023-11-19T07:13:54;12.80;99.90
21582;DHT22;10952;50.836;4.348;2023-11-19T07:16:20;12.90;99.90
21582;DHT22;10952;50.836;4.348;2023-11-19T07:18:48;12.90;99.90
21582;DHT22;10952;50.836;4.348;2023-11-19T07:21:15;12.90;99.90
21582;DHT22;10952;50.836;4.348;2023-11-19T07:23:40;13.00;99.90
21582;DHT22;10952;50.836;4.348;2023-11-19T07:26:07;13.00;99.90
21582;DHT22;10952;50.836;4.348;2023-11-19T07:28:33;13.00;99.90
21582;DHT22;10952;50.836;4.348;2023-11-19T07:31:00;13.00;99.90
21582;DHT22;10952;50.836;4.348;2023-11-19T07:33:25;13.00;99.90
21582;DHT22;10952;50.836;4.348;2023-11-19T07:35:51;13.00;99.90
21582;DHT22;10952;50.836;4.348;2023-11-19T07:38:17;13.10;99.90
21582;DHT22;10952;50.836;4.348;2023-11-19T07:40:43;13.00;99.90
21582;DHT22;10952;50.836;4.348;2023-11-19T07:43:09;13.00;99.90
21582;DHT22;10952;50.836;4.348;2023-11-19T07:45:35;13.00;99.90
21582;DHT22;10952;50.836;4.348;2023-11-19T07:48:00;13.00;99.90
21582;DHT22;10952;50.836;4.348;2023-11-19T07:50:26;12.90;99.90
21582;DHT22;10952;50.836;4.348;2023-11-19T07:52:53;12.90;99.90
21582;DHT22;10952;50.836;4.348;2023-11-19T07:55:18;13.00;99.90
21582;DHT22;10952;50.836;4.348;2023-11-19T07:57:44;13.10;99.90
21582;DHT22;10952;50.836;4.348;2023-11-19T08:00:10;13.10;99.90
21582;DHT22;10952;50.836;4.348;2023-11-19T08:02:39;13.20;99.90
21582;DHT22;10952;50.836;4.348;2023-11-19T08:05:05;13.20;99.90
21582;DHT22;10952;50.836;4.348;2023-11-19T08:07:31;13.20;99.90
21582;DHT22;10952;50.836;4.348;2023-11-19T08:09:57;13.10;99.90
21582;DHT22;10952;50.836;4.348;2023-11-19T08:12:22;13.00;99.90
21582;DHT22;10952;50.836;4.348;2023-11-19T08:14:48;13.00;99.90
21582;DHT22;10952;50.836;4.348;2023-11-19T08:17:15;13.10;99.90
21582;DHT22;10952;50.836;4.348;2023-11-19T08:19:41;13.10;99.90
21582;DHT22;10952;50.836;4.348;2023-11-19T08:22:07;13.10;99.90
21582;DHT22;10952;50.836;4.348;2023-11-19T08:24:32;13.10;99.90
21582;DHT22;10952;50.836;4.348;2023-11-19T08:26:58;13.10;99.90
21582;DHT22;10952;50.836;4.348;2023-11-19T08:29:24;13.20;99.90
21582;DHT22;10952;50.836;4.348;2023-11-19T08:31:50;13.30;99.90
21582;DHT22;10952;50.836;4.348;2023-11-19T08:34:16;13.40;99.90
21582;DHT22;10952;50.836;4.348;2023-11-19T08:36:41;13.40;99.90
21582;DHT22;10952;50.836;4.348;2023-11-19T08:39:07;13.30;99.90
21582;DHT22;10952;50.836;4.348;2023-11-19T08:41:34;13.40;99.90
21582;DHT22;10952;50.836;4.348;2023-11-19T08:43:59;13.40;99.90
21582;DHT22;10952;50.836;4.348;2023-11-19T08:46:25;13.30;99.90
21582;DHT22;10952;50.836;4.348;2023-11-19T08:48:51;13.30;99.90
21582;DHT22;10952;50.836;4.348;2023-11-19T08:51:17;13.30;99.90
21582;DHT22;10952;50.836;4.348;2023-11-19T08:53:43;13.20;99.90
21582;DHT22;10952;50.836;4.348;2023-11-19T08:56:08;13.20;99.90
21582;DHT22;10952;50.836;4.348;2023-11-19T08:58:34;13.20;99.90
21582;DHT22;10952;50.836;4.348;2023-11-19T09:00:59;13.30;99.90
21582;DHT22;10952;50.836;4.348;2023-11-19T09:03:26;13.30;99.90
21582;DHT22;10952;50.836;4.348;2023-11-19T09:05:55;13.40;99.90
21582;DHT22;10952;50.836;4.348;2023-11-19T09:08:21;13.40;99.90
21582;DHT22;10952;50.836;4.348;2023-11-19T09:10:46;13.40;99.90
21582;DHT22;10952;50.836;4.348;2023-11-19T09:13:12;13.40;99.90
21582;DHT22;10952;50.836;4.348;2023-11-19T09:15:37;13.50;99.90
21582;DHT22;10952;50.836;4.348;2023-11-19T09:18:03;13.50;99.90
21582;DHT22;10952;50.836;4.348;2023-11-19T09:20:30;13.70;99.90
21582;DHT22;10952;50.836;4.348;2023-11-19T09:23:03;13.80;99.90
21582;DHT22;10952;50.836;4.348;2023-11-19T09:25:28;13.90;99.90
21582;DHT22;10952;50.836;4.348;2023-11-19T09:27:54;13.80;99.90
21582;DHT22;10952;50.836;4.348;2023-11-19T09:30:20;13.80;99.90
21582;DHT22;10952;50.836;4.348;2023-11-19T09:32:45;13.90;99.90
21582;DHT22;10952;50.836;4.348;2023-11-19T09:35:11;13.80;99.90
21582;DHT22;10952;50.836;4.348;2023-11-19T09:37:39;13.80;99.90
21582;DHT22;10952;50.836;4.348;2023-11-19T09:40:05;13.80;99.90
21582;DHT22;10952;50.836;4.348;2023-11-19T09:42:43;13.80;99.90
21582;DHT22;10952;50.836;4.348;2023-11-19T09:45:13;13.70;99.90
21582;DHT22;10952;50.836;4.348;2023-11-19T09:47:44;13.70;99.90
21582;DHT22;10952;50.836;4.348;2023-11-19T09:50:17;13.70;99.90
21582;DHT22;10952;50.836;4.348;2023-11-19T09:52:47;13.70;99.90
21582;DHT22;10952;50.836;4.348;2023-11-19T09:55:13;13.80;99.90
21582;DHT22;10952;50.836;4.348;2023-11-19T09:57:40;13.90;99.90
21582;DHT22;10952;50.836;4.348;2023-11-19T10:00:07;14.00;99.90
21582;DHT22;10952;50.836;4.348;2023-11-19T10:02:34;14.00;99.90
21582;DHT22;10952;50.836;4.348;2023-11-19T10:05:11;14.10;99.90
21582;DHT22;10952;50.836;4.348;2023-11-19T10:07:38;14.20;99.90
21582;DHT22;10952;50.836;4.348;2023-11-19T10:10:04;14.10;99.90
21582;DHT22;10952;50.836;4.348;2023-11-19T10:12:30;14.10;99.90
21582;DHT22;10952;50.836;4.348;2023-11-19T10:14:58;14.20;99.90
21582;DHT22;10952;50.836;4.348;2023-11-19T10:17:34;14.30;99.90
21582;DHT22;10952;50.836;4.348;2023-11-19T10:20:00;14.30;99.90
21582;DHT22;10952;50.836;4.348;2023-11-19T10:22:27;14.30;99.90
21582;DHT22;10952;50.836;4.348;2023-11-19T10:24:53;14.40;99.90
21582;DHT22;10952;50.836;4.348;2023-11-19T10:27:19;14.50;99.90
21582;DHT22;10952;50.836;4.348;2023-11-19T10:29:48;14.90;99.90
21582;DHT22;10952;50.836;4.348;2023-11-19T10:32:14;15.70;99.90
21582;DHT22;10952;50.836;4.348;2023-11-19T10:34:42;16.10;99.90
21582;DHT22;10952;50.836;4.348;2023-11-19T10:37:09;15.90;99.90
21582;DHT22;10952;50.836;4.348;2023-11-19T10:39:54;15.90;99.90
21582;DHT22;10952;50.836;4.348;2023-11-19T10:42:20;15.50;99.90
21582;DHT22;10952;50.836;4.348;2023-11-19T10:44:46;15.20;99.90
21582;DHT22;10952;50.836;4.348;2023-11-19T10:47:14;15.00;99.90
21582;DHT22;10952;50.836;4.348;2023-11-19T10:49:39;14.90;99.90
21582;DHT22;10952;50.836;4.348;2023-11-19T10:52:08;14.80;99.90
21582;DHT22;10952;50.836;4.348;2023-11-19T10:54:34;14.80;99.90
21582;DHT22;10952;50.836;4.348;2023-11-19T10:57:01;14.90;99.90
21582;DHT22;10952;50.836;4.348;2023-11-19T10:59:30;15.40;99.90
21582;DHT22;10952;50.836;4.348;2023-11-19T11:01:57;16.00;99.90
21582;DHT22;10952;50.836;4.348;2023-11-19T11:04:24;16.80;99.90
21582;DHT22;10952;50.836;4.348;2023-11-19T11:06:54;16.90;99.90
21582;DHT22;10952;50.836;4.348;2023-11-19T11:09:26;16.80;99.90
21582;DHT22;10952;50.836;4.348;2023-11-19T11:11:54;16.40;99.90
21582;DHT22;10952;50.836;4.348;2023-11-19T11:14:21;16.00;99.90
21582;DHT22;10952;50.836;4.348;2023-11-19T11:16:48;15.70;99.90
21582;DHT22;10952;50.836;4.348;2023-11-19T11:19:16;15.50;99.90
21582;DHT22;10952;50.836;4.348;2023-11-19T11:21:45;15.40;99.90
21582;DHT22;10952;50.836;4.348;2023-11-19T11:32:47;14.60;99.90
21582;DHT22;10952;50.836;4.348;2023-11-19T11:35:30;14.70;99.90
21582;DHT22;10952;50.836;4.348;2023-11-19T11:38:03;14.80;99.90
21582;DHT22;10952;50.836;4.348;2023-11-19T11:40:29;15.00;99.90
21582;DHT22;10952;50.836;4.348;2023-11-19T11:42:56;15.10;99.90
21582;DHT22;10952;50.836;4.348;2023-11-19T11:45:42;15.10;99.90
21582;DHT22;10952;50.836;4.348;2023-11-19T11:48:19;15.00;99.90
21582;DHT22;10952;50.836;4.348;2023-11-19T11:50:49;15.00;99.90
21582;DHT22;10952;50.836;4.348;2023-11-19T11:53:18;15.10;99.90
21582;DHT22;10952;50.836;4.348;2023-11-19T11:58:19;15.30;99.90
21582;DHT22;10952;50.836;4.348;2023-11-19T12:00:47;15.40;99.90
21582;DHT22;10952;50.836;4.348;2023-11-19T12:03:14;15.60;99.90
21582;DHT22;10952;50.836;4.348;2023-11-19T12:05:44;15.50;99.90
21582;DHT22;10952;50.836;4.348;2023-11-19T12:08:11;15.50;99.90
21582;DHT22;10952;50.836;4.348;2023-11-19T12:10:47;15.40;99.90
21582;DHT22;10952;50.836;4.348;2023-11-19T12:13:17;15.40;99.90
21582;DHT22;10952;50.836;4.348;2023-11-19T12:18:29;15.30;99.90
21582;DHT22;10952;50.836;4.348;2023-11-19T12:20:56;15.30;99.90
21582;DHT22;10952;50.836;4.348;2023-11-19T12:23:26;15.10;99.90
21582;DHT22;10952;50.836;4.348;2023-11-19T12:25:52;15.00;99.90
21582;DHT22;10952;50.836;4.348;2023-11-19T12:28:17;14.80;99.90
21582;DHT22;10952;50.836;4.348;2023-11-19T12:30:44;14.70;99.90
21582;DHT22;10952;50.836;4.348;2023-11-19T12:33:12;14.70;99.90
21582;DHT22;10952;50.836;4.348;2023-11-19T12:35:44;14.60;99.90
21582;DHT22;10952;50.836;4.348;2023-11-19T12:38:20;14.50;99.90
21582;DHT22;10952;50.836;4.348;2023-11-19T12:41:09;14.30;99.90
21582;DHT22;10952;50.836;4.348;2023-11-19T12:43:39;14.30;99.90
21582;DHT22;10952;50.836;4.348;2023-11-19T12:48:46;14.20;99.90
21582;DHT22;10952;50.836;4.348;2023-11-19T12:51:12;14.30;99.90
21582;DHT22;10952;50.836;4.348;2023-11-19T12:53:51;14.20;99.90
21582;DHT22;10952;50.836;4.348;2023-11-19T12:56:20;14.30;99.90
21582;DHT22;10952;50.836;4.348;2023-11-19T12:58:47;14.30;99.90
21582;DHT22;10952;50.836;4.348;2023-11-19T13:01:17;14.40;99.90
21582;DHT22;10952;50.836;4.348;2023-11-19T13:03:43;14.50;99.90
21582;DHT22;10952;50.836;4.348;2023-11-19T13:06:10;14.60;99.90
21582;DHT22;10952;50.836;4.348;2023-11-19T13:11:06;14.50;99.90
21582;DHT22;10952;50.836;4.348;2023-11-19T13:13:50;14.50;99.90
21582;DHT22;10952;50.836;4.348;2023-11-19T13:16:16;14.50;99.90
21582;DHT22;10952;50.836;4.348;2023-11-19T13:18:42;14.50;99.90
21582;DHT22;10952;50.836;4.348;2023-11-19T13:21:08;14.50;99.90
21582;DHT22;10952;50.836;4.348;2023-11-19T13:23:34;14.60;99.90
21582;DHT22;10952;50.836;4.348;2023-11-19T13:25:59;14.70;99.90
21582;DHT22;10952;50.836;4.348;2023-11-19T13:28:25;14.70;99.90
21582;DHT22;10952;50.836;4.348;2023-11-19T13:30:53;14.70;99.90
21582;DHT22;10952;50.836;4.348;2023-11-19T13:33:18;14.70;99.90
21582;DHT22;10952;50.836;4.348;2023-11-19T13:35:44;14.60;99.90
21582;DHT22;10952;50.836;4.348;2023-11-19T13:38:10;14.60;99.90
21582;DHT22;10952;50.836;4.348;2023-11-19T13:40:36;14.50;99.90
21582;DHT22;10952;50.836;4.348;2023-11-19T13:43:01;14.50;99.90
21582;DHT22;10952;50.836;4.348;2023-11-19T13:45:27;14.40;99.90
21582;DHT22;10952;50.836;4.348;2023-11-19T13:47:53;14.30;99.90
21582;DHT22;10952;50.836;4.348;2023-11-19T13:50:18;14.40;99.90
21582;DHT22;10952;50.836;4.348;2023-11-19T13:52:45;14.30;99.90
21582;DHT22;10952;50.836;4.348;2023-11-19T13:55:13;14.30;99.90
21582;DHT22;10952;50.836;4.348;2023-11-19T13:57:39;14.20;99.90
21582;DHT22;10952;50.836;4.348;2023-11-19T14:00:07;14.30;99.90
21582;DHT22;10952;50.836;4.348;2023-11-19T14:02:41;14.40;99.90
21582;DHT22;10952;50.836;4.348;2023-11-19T14:05:10;14.30;99.90
21582;DHT22;10952;50.836;4.348;2023-11-19T14:07:37;14.30;99.90
21582;DHT22;10952;50.836;4.348;2023-11-19T14:10:03;14.40;99.90
21582;DHT22;10952;50.836;4.348;2023-11-19T14:12:30;14.40;99.90
21582;DHT22;10952;50.836;4.348;2023-11-19T14:14:56;14.50;99.90
21582;DHT22;10952;50.836;4.348;2023-11-19T14:17:21;14.50;99.90
21582;DHT22;10952;50.836;4.348;2023-11-19T14:19:47;14.40;99.90
21582;DHT22;10952;50.836;4.348;2023-11-19T14:22:13;14.40;99.90
21582;DHT22;10952;50.836;4.348;2023-11-19T14:24:39;14.40;99.90
21582;DHT22;10952;50.836;4.348;2023-11-19T14:27:07;14.40;99.90
21582;DHT22;10952;50.836;4.348;2023-11-19T14:29:32;14.30;99.90
21582;DHT22;10952;50.836;4.348;2023-11-19T14:32:00;14.10;99.90
21582;DHT22;10952;50.836;4.348;2023-11-19T14:34:26;14.00;99.90
21582;DHT22;10952;50.836;4.348;2023-11-19T14:36:52;13.90;99.90
21582;DHT22;10952;50.836;4.348;2023-11-19T14:39:19;13.80;99.90
21582;DHT22;10952;50.836;4.348;2023-11-19T14:41:44;13.70;99.90
21582;DHT22;10952;50.836;4.348;2023-11-19T14:44:10;13.60;99.90
21582;DHT22;10952;50.836;4.348;2023-11-19T14:46:36;13.60;99.90
21582;DHT22;10952;50.836;4.348;2023-11-19T14:49:02;13.70;99.90
21582;DHT22;10952;50.836;4.348;2023-11-19T14:51:29;13.70;99.90
21582;DHT22;10952;50.836;4.348;2023-11-19T14:53:55;13.80;99.90
21582;DHT22;10952;50.836;4.348;2023-11-19T14:56:21;13.70;99.90
21582;DHT22;10952;50.836;4.348;2023-11-19T14:58:47;13.80;99.90
21582;DHT22;10952;50.836;4.348;2023-11-19T15:01:13;13.80;99.90
21582;DHT22;10952;50.836;4.348;2023-11-19T15:03:39;13.90;99.90
21582;DHT22;10952;50.836;4.348;2023-11-19T15:06:05;13.90;99.90
21582;DHT22;10952;50.836;4.348;2023-11-19T15:08:32;13.80;99.90
21582;DHT22;10952;50.836;4.348;2023-11-19T15:10:58;13.80;99.90
21582;DHT22;10952;50.836;4.348;2023-11-19T15:13:24;13.80;99.90
21582;DHT22;10952;50.836;4.348;2023-11-19T15:15:50;13.80;99.90
21582;DHT22;10952;50.836;4.348;2023-11-19T15:18:18;13.80;99.90
21582;DHT22;10952;50.836;4.348;2023-11-19T15:20:44;13.90;99.90
21582;DHT22;10952;50.836;4.348;2023-11-19T15:23:14;14.00;99.90
21582;DHT22;10952;50.836;4.348;2023-11-19T15:25:41;14.00;99.90
21582;DHT22;10952;50.836;4.348;2023-11-19T15:28:07;14.00;99.90
21582;DHT22;10952;50.836;4.348;2023-11-19T15:30:32;14.00;99.90
21582;DHT22;10952;50.836;4.348;2023-11-19T15:32:58;13.90;99.90
21582;DHT22;10952;50.836;4.348;2023-11-19T15:35:24;14.00;99.90
21582;DHT22;10952;50.836;4.348;2023-11-19T15:37:50;14.00;99.90
21582;DHT22;10952;50.836;4.348;2023-11-19T15:40:15;14.10;99.90
21582;DHT22;10952;50.836;4.348;2023-11-19T15:42:41;14.10;99.90
21582;DHT22;10952;50.836;4.348;2023-11-19T15:45:11;14.10;99.90
21582;DHT22;10952;50.836;4.348;2023-11-19T15:47:37;14.00;99.90